createdAt,value
2023-04-21T00:00:10.544Z,2.47
2023-04-21T00:02:39.896Z,2.88
2023-04-21T00:05:10.521Z,3.25
2023-04-21T00:07:39.049Z,2.95
2023-04-21T00:10:11.253Z,2.92
2023-04-21T00:15:06.690Z,2.67
2023-04-21T00:17:34.117Z,3.08
2023-04-21T00:20:01.465Z,3.40
2023-04-21T00:22:28.861Z,2.80
2023-04-21T00:24:56.212Z,2.50
2023-04-21T00:27:23.586Z,3.00
2023-04-21T00:29:50.947Z,2.90
2023-04-21T00:32:18.442Z,3.10
2023-04-21T00:34:45.877Z,2.80
2023-04-21T00:37:13.333Z,2.90
2023-04-21T00:39:40.733Z,3.55
2023-04-21T00:42:08.167Z,3.13
2023-04-21T00:44:36.362Z,3.15
2023-04-21T00:47:05.004Z,3.13
2023-04-21T00:49:32.957Z,2.90
2023-04-21T00:52:00.505Z,2.88
2023-04-21T00:54:28.217Z,3.47
2023-04-21T00:56:58.517Z,3.05
2023-04-21T00:59:26.148Z,2.92
2023-04-21T01:01:54.155Z,3.05
2023-04-21T01:04:22.176Z,2.85
2023-04-21T01:06:49.621Z,3.35
2023-04-21T01:09:17.292Z,3.22
2023-04-21T01:12:02.239Z,3.13
2023-04-21T01:14:30.093Z,3.35
2023-04-21T01:16:57.984Z,3.17
2023-04-21T01:19:26.751Z,3.33
2023-04-21T01:21:57.670Z,3.80
2023-04-21T01:24:25.361Z,3.20
2023-04-21T01:26:52.783Z,3.20
2023-04-21T01:29:20.481Z,3.50
2023-04-21T01:31:48.377Z,3.50
2023-04-21T01:34:16.169Z,3.97
2023-04-21T01:36:45.538Z,3.30
2023-04-21T01:39:12.913Z,3.45
2023-04-21T01:41:40.695Z,3.97
2023-04-21T01:44:08.151Z,3.60
2023-04-21T01:46:35.784Z,3.65
2023-04-21T01:49:03.995Z,4.70
2023-04-21T01:51:33.818Z,3.95
2023-04-21T01:54:01.578Z,4.45
2023-04-21T01:56:29.024Z,4.10
2023-04-21T01:58:56.492Z,4.00
2023-04-21T02:01:24.363Z,3.85
2023-04-21T02:03:51.919Z,4.40
2023-04-21T02:06:19.460Z,4.32
2023-04-21T02:08:46.844Z,4.55
2023-04-21T02:11:15.117Z,4.43
2023-04-21T02:13:42.499Z,3.67
2023-04-21T02:16:13.291Z,4.15
2023-04-21T02:18:41.603Z,3.92
2023-04-21T02:21:09.043Z,3.88
2023-04-21T02:23:36.442Z,4.40
2023-04-21T02:26:03.893Z,4.47
2023-04-21T02:28:32.917Z,4.55
2023-04-21T02:31:00.354Z,4.47
2023-04-21T02:33:27.858Z,4.32
2023-04-21T02:35:55.274Z,4.07
2023-04-21T02:38:25.189Z,4.40
2023-04-21T02:40:52.706Z,4.50
2023-04-21T02:43:20.324Z,4.43
2023-04-21T02:45:49.420Z,4.30
2023-04-21T02:48:20.818Z,4.72
2023-04-21T02:50:51.015Z,4.53
2023-04-21T02:53:18.792Z,4.22
2023-04-21T02:55:46.150Z,4.65
2023-04-21T02:58:14.472Z,4.75
2023-04-21T03:00:42.598Z,4.32
2023-04-21T03:03:10.146Z,4.60
2023-04-21T03:05:37.861Z,4.70
2023-04-21T03:08:06.717Z,4.85
2023-04-21T03:10:37.641Z,4.72
2023-04-21T03:13:05.049Z,4.60
2023-04-21T03:15:32.954Z,4.40
2023-04-21T03:18:02.235Z,4.38
2023-04-21T03:20:29.861Z,4.85
2023-04-21T03:22:57.197Z,4.30
2023-04-21T03:25:24.759Z,4.38
2023-04-21T03:27:52.142Z,4.18
2023-04-21T03:30:20.925Z,4.38
2023-04-21T03:32:48.463Z,4.60
2023-04-21T03:35:16.415Z,5.18
2023-04-21T03:37:43.817Z,4.95
2023-04-21T03:40:11.416Z,4.97
2023-04-21T03:42:38.778Z,5.00
2023-04-21T03:45:07.895Z,5.55
2023-04-21T03:47:36.316Z,5.43
2023-04-21T03:50:05.856Z,5.40
2023-04-21T03:52:33.557Z,5.47
2023-04-21T03:55:01.495Z,5.55
2023-04-21T03:57:28.998Z,5.45
2023-04-21T03:59:56.368Z,5.97
2023-04-21T04:02:23.969Z,5.43
2023-04-21T04:04:51.578Z,4.90
2023-04-21T04:07:19.182Z,5.57
2023-04-21T04:09:46.756Z,4.82
2023-04-21T04:12:14.093Z,5.80
2023-04-21T04:14:41.485Z,6.47
2023-04-21T04:17:08.973Z,5.72
2023-04-21T04:19:36.718Z,5.75
2023-04-21T04:22:04.129Z,6.38
2023-04-21T04:24:33.618Z,6.18
2023-04-21T04:27:02.675Z,5.40
2023-04-21T04:29:30.429Z,6.30
2023-04-21T04:31:58.580Z,6.32
2023-04-21T04:34:26.173Z,5.60
2023-04-21T04:36:53.838Z,6.38
2023-04-21T04:39:22.256Z,6.35
2023-04-21T04:41:49.618Z,6.18
2023-04-21T04:44:18.090Z,7.72
2023-04-21T04:46:45.879Z,6.53
2023-04-21T04:49:13.357Z,6.85
2023-04-21T04:51:40.877Z,6.88
2023-04-21T04:54:08.249Z,6.63
2023-04-21T04:56:35.734Z,6.32
2023-04-21T04:59:03.206Z,6.20
2023-04-21T05:01:30.927Z,6.85
2023-04-21T05:03:58.908Z,7.65
2023-04-21T05:06:26.481Z,6.32
2023-04-21T05:08:53.858Z,7.60
2023-04-21T05:11:21.239Z,7.03
2023-04-21T05:13:48.584Z,6.18
2023-04-21T05:16:16.071Z,6.28
2023-04-21T05:18:43.502Z,6.30
2023-04-21T05:21:10.931Z,5.82
2023-04-21T05:23:38.337Z,7.05
2023-04-21T05:26:06.018Z,6.60
2023-04-21T05:28:36.617Z,7.07
2023-04-21T05:31:04.136Z,6.97
2023-04-21T05:33:32.075Z,7.18
2023-04-21T05:35:59.580Z,7.68
2023-04-21T05:38:27.557Z,7.10
2023-04-21T05:40:56.195Z,6.85
2023-04-21T05:43:23.716Z,7.25
2023-04-21T05:45:51.135Z,6.63
2023-04-21T05:48:18.684Z,7.05
2023-04-21T05:50:46.127Z,7.50
2023-04-21T05:53:13.477Z,7.47
2023-04-21T05:55:40.987Z,7.40
2023-04-21T05:58:08.485Z,6.57
2023-04-21T06:00:35.901Z,6.45
2023-04-21T06:03:03.598Z,6.00
2023-04-21T06:05:31.233Z,5.85
2023-04-21T06:07:58.863Z,11.48
2023-04-21T06:10:26.356Z,6.40
2023-04-21T06:12:53.767Z,6.15
2023-04-21T06:15:21.246Z,5.50
2023-04-21T06:17:54.125Z,6.10
2023-04-21T06:20:21.797Z,5.60
2023-04-21T06:22:49.233Z,5.85
2023-04-21T06:25:16.908Z,5.60
2023-04-21T06:27:45.703Z,5.70
2023-04-21T06:30:13.454Z,5.63
2023-04-21T06:32:41.032Z,5.25
2023-04-21T06:35:09.180Z,5.70
2023-04-21T06:37:36.547Z,5.70
2023-04-21T06:40:04.474Z,7.00
2023-04-21T06:42:31.866Z,4.80
2023-04-21T06:44:59.227Z,4.20
2023-04-21T06:47:27.422Z,4.07
2023-04-21T06:49:54.960Z,4.68
2023-04-21T06:52:22.339Z,4.38
2023-04-21T06:54:49.719Z,4.85
2023-04-21T06:57:17.770Z,4.40
2023-04-21T06:59:45.210Z,4.50
2023-04-21T07:02:12.686Z,3.95
2023-04-21T07:04:40.140Z,4.88
2023-04-21T07:07:07.666Z,4.25
2023-04-21T07:09:35.075Z,4.68
2023-04-21T07:12:03.053Z,4.82
2023-04-21T07:14:30.473Z,4.47
2023-04-21T07:16:57.957Z,4.72
2023-04-21T07:19:25.454Z,4.53
2023-04-21T07:21:52.922Z,4.70
2023-04-21T07:24:20.348Z,4.25
2023-04-21T07:26:47.734Z,4.50
2023-04-21T07:29:15.160Z,4.30
2023-04-21T07:31:42.669Z,4.30
2023-04-21T07:34:10.327Z,4.43
2023-04-21T07:36:38.221Z,4.20
2023-04-21T07:39:05.672Z,3.83
2023-04-21T07:41:33.036Z,4.28
2023-04-21T07:44:00.449Z,4.30
2023-04-21T07:46:30.463Z,3.88
2023-04-21T07:49:03.736Z,4.65
2023-04-21T07:51:32.051Z,4.30
2023-04-21T07:53:59.785Z,4.80
2023-04-21T07:56:27.532Z,3.95
2023-04-21T07:58:54.989Z,4.10
2023-04-21T08:01:23.765Z,4.25
2023-04-21T08:03:51.483Z,5.00
2023-04-21T08:06:19.246Z,5.15
2023-04-21T08:08:46.874Z,4.63
2023-04-21T08:11:14.330Z,4.70
2023-04-21T08:13:41.788Z,4.63
2023-04-21T08:16:09.332Z,4.53
2023-04-21T08:18:36.766Z,4.13
2023-04-21T08:21:04.492Z,5.50
2023-04-21T08:23:32.525Z,4.60
2023-04-21T08:26:02.789Z,5.93
2023-04-21T08:28:30.331Z,4.70
2023-04-21T08:30:57.770Z,5.53
2023-04-21T08:33:25.308Z,5.25
2023-04-21T08:36:03.988Z,4.95
2023-04-21T08:41:04.315Z,5.22
2023-04-21T08:43:31.833Z,5.13
2023-04-21T08:46:00.360Z,5.15
2023-04-21T08:48:29.695Z,5.55
2023-04-21T08:50:58.024Z,5.22
2023-04-21T08:53:25.878Z,5.22
2023-04-21T08:56:07.572Z,4.80
2023-04-21T08:58:38.047Z,4.70
2023-04-21T09:01:05.743Z,5.05
2023-04-21T09:03:33.485Z,4.68
2023-04-21T09:06:05.540Z,5.22
2023-04-21T09:11:01.948Z,5.30
2023-04-21T09:13:31.419Z,4.97
2023-04-21T09:15:59.750Z,6.30
2023-04-21T09:18:35.276Z,5.53
2023-04-21T09:21:13.039Z,6.85
2023-04-21T09:23:51.761Z,5.82
2023-04-21T09:26:22.929Z,6.35
2023-04-21T09:28:52.841Z,5.60
2023-04-21T09:31:24.590Z,6.05
2023-04-21T09:34:00.185Z,5.45
2023-04-21T09:36:30.529Z,5.97
2023-04-21T09:41:33.328Z,5.05
2023-04-21T09:44:05.075Z,5.00
2023-04-21T09:46:36.868Z,4.00
2023-04-21T09:49:06.187Z,4.00
2023-04-21T09:54:28.288Z,5.10
2023-04-21T09:57:03.504Z,4.87
2023-04-21T09:59:35.400Z,4.22
2023-04-21T10:02:07.187Z,5.30
2023-04-21T10:04:37.288Z,4.53
2023-04-21T10:07:05.330Z,5.15
2023-04-21T10:09:43.060Z,3.95
2023-04-21T10:12:11.450Z,4.53
2023-04-21T10:14:38.970Z,4.00
2023-04-21T10:17:08.592Z,4.80
2023-04-21T10:19:40.535Z,3.60
2023-04-21T10:22:09.958Z,3.85
2023-04-21T10:24:42.530Z,3.67
2023-04-21T10:29:48.463Z,3.83
2023-04-21T10:32:42.668Z,3.67
2023-04-21T10:35:23.226Z,4.13
2023-04-21T10:37:52.122Z,4.32
2023-04-21T10:40:44.373Z,3.65
2023-04-21T10:45:58.282Z,4.22
2023-04-21T10:48:26.666Z,4.50
2023-04-21T10:50:54.091Z,4.90
2023-04-21T10:53:25.825Z,5.43
2023-04-21T10:55:53.751Z,4.10
2023-04-21T10:58:24.339Z,4.38
2023-04-21T11:00:55.700Z,4.72
2023-04-21T11:03:23.291Z,4.57
2023-04-21T11:05:50.847Z,4.82
2023-04-21T11:08:18.234Z,4.82
2023-04-21T11:10:56.269Z,3.72
2023-04-21T11:13:33.437Z,4.40
2023-04-21T11:16:03.828Z,3.65
2023-04-21T11:18:42.033Z,3.78
2023-04-21T11:21:17.919Z,4.53
2023-04-21T11:23:57.408Z,4.10
2023-04-21T11:26:38.194Z,4.00
2023-04-21T11:29:07.576Z,4.20
2023-04-21T11:31:36.669Z,4.00
2023-04-21T11:34:05.592Z,4.13
2023-04-21T11:36:37.270Z,4.35
2023-04-21T11:39:13.899Z,3.95
2023-04-21T11:41:49.823Z,3.30
2023-04-21T11:44:34.757Z,3.22
2023-04-21T11:47:16.911Z,3.50
2023-04-21T11:50:02.304Z,3.42
2023-04-21T11:52:37.561Z,3.40
2023-04-21T11:55:11.248Z,3.60
2023-04-21T11:57:41.021Z,3.88
2023-04-21T12:00:11.962Z,3.40
2023-04-21T12:02:39.578Z,2.83
2023-04-21T12:05:08.466Z,2.97
2023-04-21T12:07:43.948Z,3.47
2023-04-21T12:10:13.860Z,3.75
2023-04-21T12:12:42.620Z,3.50
2023-04-21T12:15:11.914Z,3.72
2023-04-21T12:17:45.918Z,3.78
2023-04-21T12:20:16.403Z,3.90
2023-04-21T12:22:43.982Z,4.20
2023-04-21T12:25:11.496Z,4.30
2023-04-21T12:28:07.950Z,4.03
2023-04-21T12:30:38.650Z,4.28
2023-04-21T12:33:08.808Z,4.32
2023-04-21T12:35:36.378Z,4.47
2023-04-21T12:38:03.813Z,5.57
2023-04-21T12:40:31.197Z,4.80
2023-04-21T12:42:58.627Z,4.82
2023-04-21T12:45:26.105Z,4.68
2023-04-21T12:47:53.544Z,4.30
2023-04-21T12:50:21.363Z,4.70
2023-04-21T12:52:51.404Z,4.05
2023-04-21T12:55:18.793Z,4.40
2023-04-21T12:57:46.184Z,4.70
2023-04-21T13:00:15.114Z,4.03
2023-04-21T13:02:42.893Z,4.22
2023-04-21T13:05:12.228Z,4.47
2023-04-21T13:07:39.883Z,4.75
2023-04-21T13:10:08.566Z,4.60
2023-04-21T13:12:36.123Z,4.28
2023-04-21T13:15:03.943Z,4.32
2023-04-21T13:17:31.562Z,4.97
2023-04-21T13:19:58.992Z,4.32
2023-04-21T13:22:26.439Z,5.85
2023-04-21T13:24:53.841Z,4.80
2023-04-21T13:27:21.403Z,6.05
2023-04-21T13:29:49.316Z,4.65
2023-04-21T13:32:16.869Z,4.25
2023-04-21T13:34:44.275Z,4.20
2023-04-21T13:37:16.052Z,4.70
2023-04-21T13:39:43.738Z,4.30
2023-04-21T13:42:11.474Z,3.75
2023-04-21T13:44:38.883Z,3.65
2023-04-21T13:47:08.975Z,3.15
2023-04-21T13:49:36.655Z,3.53
2023-04-21T13:52:04.418Z,3.20
2023-04-21T13:54:32.091Z,3.03
2023-04-21T13:56:59.749Z,3.15
2023-04-21T13:59:27.780Z,2.63
2023-04-21T14:01:55.313Z,2.65
2023-04-21T14:04:23.101Z,2.05
2023-04-21T14:06:51.256Z,2.60
2023-04-21T14:09:18.828Z,2.63
2023-04-21T14:11:46.256Z,2.47
2023-04-21T14:14:16.941Z,2.60
2023-04-21T14:16:49.571Z,2.50
2023-04-21T14:19:17.587Z,2.10
2023-04-21T14:21:44.923Z,2.00
2023-04-21T14:24:12.295Z,2.35
2023-04-21T14:26:39.714Z,2.30
2023-04-21T14:29:07.230Z,2.20
2023-04-21T14:31:34.747Z,2.22
2023-04-21T14:34:02.306Z,2.15
2023-04-21T14:36:29.744Z,2.40
2023-04-21T14:38:57.190Z,2.13
2023-04-21T14:41:24.646Z,2.92
2023-04-21T14:43:53.947Z,2.55
2023-04-21T14:46:21.736Z,2.60
2023-04-21T14:48:49.387Z,2.50
2023-04-21T14:51:17.360Z,2.50
2023-04-21T14:53:44.903Z,2.47
2023-04-21T14:56:12.381Z,2.45
2023-04-21T14:58:39.913Z,2.35
2023-04-21T15:01:08.343Z,2.78
2023-04-21T15:03:36.557Z,2.78
2023-04-21T15:06:04.542Z,3.33
2023-04-21T15:08:31.946Z,2.75
2023-04-21T15:10:59.562Z,2.92
2023-04-21T15:13:27.205Z,3.00
2023-04-21T15:15:54.648Z,2.90
2023-04-21T15:18:22.021Z,3.22
2023-04-21T15:20:49.481Z,2.50
2023-04-21T15:23:17.167Z,3.25
2023-04-21T15:25:44.706Z,2.55
2023-04-21T15:28:13.058Z,5.57
2023-04-21T15:30:40.545Z,3.53
2023-04-21T15:33:08.056Z,3.83
2023-04-21T15:35:35.467Z,4.50
2023-04-21T15:38:03.160Z,4.13
2023-04-21T15:40:30.630Z,3.92
2023-04-21T15:42:58.095Z,3.85
2023-04-21T15:45:25.541Z,3.58
2023-04-21T15:47:53.019Z,3.92
2023-04-21T15:50:20.645Z,4.03
2023-04-21T15:52:48.296Z,4.38
2023-04-21T15:55:16.075Z,3.60
2023-04-21T15:57:43.584Z,4.32
2023-04-21T16:00:12.748Z,3.75
2023-04-21T16:02:40.665Z,4.00
2023-04-21T16:05:09.227Z,3.53
2023-04-21T16:07:36.861Z,4.03
2023-04-21T16:10:04.566Z,4.30
2023-04-21T16:12:32.007Z,3.40
2023-04-21T16:15:03.943Z,3.80
2023-04-21T16:17:37.241Z,3.75
2023-04-21T16:20:05.659Z,3.97
2023-04-21T16:22:33.117Z,4.57
2023-04-21T16:25:01.783Z,4.05
2023-04-21T16:27:29.412Z,3.47
2023-04-21T16:29:56.905Z,4.10
2023-04-21T16:32:24.496Z,4.32
2023-04-21T16:34:51.982Z,4.78
2023-04-21T16:37:19.467Z,3.80
2023-04-21T16:39:47.009Z,3.55
2023-04-21T16:42:14.406Z,3.30
2023-04-21T16:44:41.916Z,4.03
2023-04-21T16:47:09.354Z,4.03
2023-04-21T16:49:36.866Z,3.88
2023-04-21T16:52:04.529Z,3.85
2023-04-21T16:54:33.086Z,3.80
2023-04-21T16:57:02.110Z,4.00
2023-04-21T16:59:30.837Z,4.50
2023-04-21T17:01:59.881Z,4.00
2023-04-21T17:04:27.311Z,4.03
2023-04-21T17:06:54.733Z,4.10
2023-04-21T17:09:22.143Z,6.25
2023-04-21T17:11:49.562Z,5.72
2023-04-21T17:14:17.008Z,5.13
2023-04-21T17:16:44.447Z,5.85
2023-04-21T17:19:11.855Z,5.55
2023-04-21T17:21:39.283Z,5.20
2023-04-21T17:24:06.726Z,5.22
2023-04-21T17:26:34.274Z,5.53
2023-04-21T17:29:01.994Z,5.60
2023-04-21T17:31:30.512Z,5.50
2023-04-21T17:33:57.919Z,5.38
2023-04-21T17:36:29.515Z,5.95
2023-04-21T17:38:58.352Z,6.15
2023-04-21T17:41:26.980Z,5.57
2023-04-21T17:43:57.218Z,6.07
2023-04-21T17:46:25.528Z,7.20
2023-04-21T17:48:53.590Z,8.13
2023-04-21T17:51:21.197Z,9.52
2023-04-21T17:53:48.585Z,9.23
2023-04-21T17:56:16.204Z,8.88
2023-04-21T17:58:43.794Z,9.60
2023-04-21T18:01:11.210Z,9.43
2023-04-21T18:03:41.398Z,10.07
2023-04-21T18:06:11.220Z,10.52
2023-04-21T18:08:38.773Z,12.75
2023-04-21T18:11:06.357Z,11.50
2023-04-21T18:13:34.069Z,10.88
2023-04-21T18:16:01.881Z,10.95
2023-04-21T18:18:29.339Z,11.13
2023-04-21T18:20:56.719Z,11.23
2023-04-21T18:23:24.158Z,10.90
2023-04-21T18:25:51.584Z,11.10
2023-04-21T18:28:18.991Z,10.95
2023-04-21T18:30:47.175Z,10.80
2023-04-21T18:33:14.806Z,11.00
2023-04-21T18:35:42.335Z,11.23
2023-04-21T18:38:11.634Z,11.35
2023-04-21T18:40:40.736Z,10.30
2023-04-21T18:43:09.880Z,10.07
2023-04-21T18:45:37.805Z,9.07
2023-04-21T18:48:05.759Z,9.73
2023-04-21T18:50:35.934Z,8.35
2023-04-21T18:53:05.026Z,9.55
2023-04-21T18:55:33.554Z,8.75
2023-04-21T18:58:01.361Z,8.80
2023-04-21T19:00:28.917Z,8.05
2023-04-21T19:02:56.506Z,8.70
2023-04-21T19:05:24.124Z,8.80
2023-04-21T19:07:51.571Z,8.57
2023-04-21T19:10:19.083Z,8.45
2023-04-21T19:12:46.505Z,7.15
2023-04-21T19:15:13.961Z,7.75
2023-04-21T19:17:41.710Z,8.30
2023-04-21T19:20:09.821Z,7.65
2023-04-21T19:22:37.416Z,7.88
2023-04-21T19:25:06.139Z,5.95
2023-04-21T19:27:33.542Z,6.32
2023-04-21T19:30:01.172Z,7.97
2023-04-21T19:32:28.660Z,7.75
2023-04-21T19:34:56.597Z,8.82
2023-04-21T19:37:24.146Z,8.27
2023-04-21T19:39:51.563Z,8.10
2023-04-21T19:42:18.938Z,7.93
2023-04-21T19:44:46.320Z,9.65
2023-04-21T19:47:13.875Z,7.20
2023-04-21T19:49:41.270Z,6.55
2023-04-21T19:52:08.677Z,5.38
2023-04-21T19:54:36.243Z,5.63
2023-04-21T19:57:03.902Z,6.03
2023-04-21T19:59:33.540Z,5.20
2023-04-21T20:02:01.160Z,6.03
2023-04-21T20:04:28.696Z,6.00
2023-04-21T20:06:56.247Z,5.85
2023-04-21T20:09:23.630Z,6.45
2023-04-21T20:11:51.015Z,5.97
2023-04-21T20:14:19.227Z,6.15
2023-04-21T20:16:46.743Z,7.07
2023-04-21T20:19:15.233Z,6.88
2023-04-21T20:21:43.931Z,7.55
2023-04-21T20:24:12.259Z,7.15
2023-04-21T20:26:39.704Z,7.07
2023-04-21T20:29:07.226Z,6.80
2023-04-21T20:31:34.828Z,7.40
2023-04-21T20:34:02.511Z,7.10
2023-04-21T20:36:29.943Z,5.65
2023-04-21T20:38:57.693Z,5.90
2023-04-21T20:41:25.163Z,6.03
2023-04-21T20:43:52.871Z,6.50
2023-04-21T20:46:29.839Z,6.88
2023-04-21T20:48:57.420Z,6.50
2023-04-21T20:51:26.717Z,6.40
2023-04-21T20:53:54.140Z,5.82
2023-04-21T20:56:21.659Z,6.70
2023-04-21T20:58:49.294Z,7.53
2023-04-21T21:01:16.885Z,6.70
2023-04-21T21:03:46.495Z,6.75
2023-04-21T21:06:14.624Z,7.05
2023-04-21T21:08:42.169Z,7.03
2023-04-21T21:11:09.617Z,7.68
2023-04-21T21:13:37.025Z,7.20
2023-04-21T21:16:04.823Z,6.82
2023-04-21T21:18:34.592Z,6.72
2023-04-21T21:21:02.242Z,6.50
2023-04-21T21:23:29.742Z,6.57
2023-04-21T21:25:58.656Z,6.68
2023-04-21T21:28:26.386Z,6.25
2023-04-21T21:30:53.845Z,6.28
2023-04-21T21:33:21.269Z,6.75
2023-04-21T21:35:48.687Z,6.55
2023-04-21T21:38:16.190Z,6.57
2023-04-21T21:40:43.614Z,7.03
2023-04-21T21:43:11.011Z,6.75
2023-04-21T21:45:38.851Z,7.40
2023-04-21T21:48:06.449Z,8.38
2023-04-21T21:50:33.911Z,8.88
2023-04-21T21:53:01.340Z,8.82
2023-04-21T21:55:28.786Z,8.82
2023-04-21T21:57:56.208Z,7.22
2023-04-21T22:00:23.908Z,7.30
2023-04-21T22:02:51.450Z,7.63
2023-04-21T22:05:19.419Z,8.63
2023-04-21T22:07:47.267Z,8.30
2023-04-21T22:10:14.743Z,8.02
2023-04-21T22:12:42.746Z,7.70
2023-04-21T22:15:10.923Z,7.85
2023-04-21T22:17:38.421Z,7.65
2023-04-21T22:20:07.494Z,7.90
2023-04-21T22:22:35.892Z,7.60
2023-04-21T22:25:03.525Z,7.20
2023-04-21T22:27:33.278Z,7.47
2023-04-21T22:30:02.466Z,7.10
2023-04-21T22:32:32.201Z,7.28
2023-04-21T22:35:00.149Z,7.70
2023-04-21T22:37:28.236Z,7.90
2023-04-21T22:39:57.468Z,7.68
2023-04-21T22:42:25.038Z,7.15
2023-04-21T22:44:52.525Z,7.13
2023-04-21T22:47:20.536Z,7.45
2023-04-21T22:49:48.072Z,7.07
2023-04-21T22:52:15.534Z,8.05
2023-04-21T22:54:42.986Z,7.93
2023-04-21T22:57:10.644Z,7.53
2023-04-21T22:59:38.347Z,7.28
2023-04-21T23:02:06.543Z,7.03
2023-04-21T23:04:35.277Z,7.45
2023-04-21T23:07:03.216Z,7.90
2023-04-21T23:09:30.613Z,7.65
2023-04-21T23:11:58.037Z,7.55
2023-04-21T23:14:25.619Z,7.32
2023-04-21T23:16:53.072Z,6.43
2023-04-21T23:19:20.911Z,7.50
2023-04-21T23:21:48.450Z,8.13
2023-04-21T23:24:15.873Z,8.93
2023-04-21T23:26:43.268Z,8.05
2023-04-21T23:29:10.671Z,8.07
2023-04-21T23:31:38.398Z,7.07
2023-04-21T23:34:05.909Z,7.78
2023-04-21T23:36:33.284Z,8.13
2023-04-21T23:39:00.982Z,7.38
2023-04-21T23:41:28.458Z,7.43
2023-04-21T23:43:55.868Z,7.68
2023-04-21T23:46:23.369Z,8.00
2023-04-21T23:48:50.833Z,7.75
2023-04-21T23:51:18.869Z,7.50
2023-04-21T23:53:46.582Z,7.53
2023-04-21T23:56:14.095Z,7.32
2023-04-21T23:58:41.501Z,7.13
